createdAt,value
2022-07-29T00:02:16.249Z,64.17
2022-07-29T00:04:42.978Z,63.92
2022-07-29T00:07:10.382Z,63.69
2022-07-29T00:09:41.908Z,63.79
2022-07-29T00:12:21.417Z,64.33
2022-07-29T00:14:53.586Z,64.49
2022-07-29T00:17:20.153Z,64.54
2022-07-29T00:19:46.752Z,64.71
2022-07-29T00:22:13.370Z,64.21
2022-07-29T00:24:40.082Z,64.80
2022-07-29T00:27:07.159Z,64.62
2022-07-29T00:29:34.922Z,64.61
2022-07-29T00:32:02.946Z,65.11
2022-07-29T00:34:53.818Z,64.84
2022-07-29T00:37:20.445Z,64.81
2022-07-29T00:39:47.113Z,64.93
2022-07-29T00:42:13.752Z,65.14
2022-07-29T00:44:42.215Z,65.07
2022-07-29T00:47:11.244Z,65.26
2022-07-29T00:49:43.148Z,65.34
2022-07-29T00:52:11.549Z,65.55
2022-07-29T00:54:44.751Z,64.73
2022-07-29T00:57:12.372Z,64.60
2022-07-29T00:59:38.965Z,64.42
2022-07-29T01:02:05.782Z,64.36
2022-07-29T01:04:33.112Z,64.70
2022-07-29T01:07:02.914Z,64.09
2022-07-29T01:09:43.158Z,64.23
2022-07-29T01:12:17.493Z,64.29
2022-07-29T01:14:44.523Z,63.73
2022-07-29T01:17:14.763Z,63.24
2022-07-29T01:19:47.645Z,63.97
2022-07-29T01:23:02.179Z,63.66
2022-07-29T01:25:51.643Z,64.16
2022-07-29T01:28:46.920Z,64.31
2022-07-29T01:31:24.992Z,64.12
2022-07-29T01:34:03.097Z,63.94
2022-07-29T01:36:47.809Z,64.08
2022-07-29T01:39:24.331Z,63.99
2022-07-29T01:41:58.871Z,64.31
2022-07-29T01:44:35.362Z,64.45
2022-07-29T01:47:09.825Z,64.26
2022-07-29T01:49:40.758Z,64.21
2022-07-29T01:52:16.679Z,64.67
2022-07-29T01:54:59.641Z,64.70
2022-07-29T01:57:30.310Z,64.27
2022-07-29T02:00:01.748Z,64.83
2022-07-29T02:02:41.238Z,64.83
2022-07-29T02:05:11.301Z,64.53
2022-07-29T02:07:38.612Z,64.68
2022-07-29T02:10:09.415Z,64.51
2022-07-29T02:12:38.954Z,64.50
2022-07-29T02:15:07.514Z,64.44
2022-07-29T02:17:49.845Z,64.42
2022-07-29T02:20:24.917Z,64.74
2022-07-29T02:22:53.050Z,64.32
2022-07-29T02:25:21.921Z,64.06
2022-07-29T02:27:51.505Z,64.12
2022-07-29T02:30:22.652Z,64.10
2022-07-29T02:32:50.494Z,64.06
2022-07-29T02:35:18.021Z,63.74
2022-07-29T02:38:06.472Z,64.33
2022-07-29T02:40:39.149Z,64.52
2022-07-29T02:43:07.634Z,63.88
2022-07-29T02:45:37.596Z,64.09
2022-07-29T02:48:16.093Z,63.74
2022-07-29T02:50:51.195Z,63.48
2022-07-29T02:53:25.066Z,64.13
2022-07-29T02:56:02.795Z,64.03
2022-07-29T02:58:35.253Z,64.42
2022-07-29T03:01:14.795Z,64.25
2022-07-29T03:03:46.423Z,64.39
2022-07-29T03:06:28.129Z,64.67
2022-07-29T03:09:02.983Z,64.70
2022-07-29T03:11:41.527Z,64.83
2022-07-29T03:14:21.732Z,64.65
2022-07-29T03:16:49.914Z,65.24
2022-07-29T03:19:17.530Z,65.29
2022-07-29T03:21:46.482Z,65.20
2022-07-29T03:24:26.462Z,64.88
2022-07-29T03:26:53.193Z,65.19
2022-07-29T03:29:20.011Z,64.85
2022-07-29T03:31:49.467Z,65.51
2022-07-29T03:34:16.640Z,65.74
2022-07-29T03:36:43.462Z,65.33
2022-07-29T03:39:13.198Z,65.25
2022-07-29T03:41:42.631Z,65.73
2022-07-29T03:44:10.672Z,65.59
2022-07-29T03:46:40.168Z,66.04
2022-07-29T03:49:09.261Z,65.99
2022-07-29T03:51:36.130Z,65.67
2022-07-29T03:54:14.200Z,66.12
2022-07-29T03:56:47.160Z,65.81
2022-07-29T03:59:16.074Z,66.30
2022-07-29T04:01:43.924Z,66.19
2022-07-29T04:04:11.064Z,66.51
2022-07-29T04:06:46.297Z,66.84
2022-07-29T04:09:15.338Z,66.79
2022-07-29T04:12:02.523Z,66.70
2022-07-29T04:14:30.528Z,66.52
2022-07-29T04:16:57.175Z,66.95
2022-07-29T04:19:23.761Z,66.41
2022-07-29T04:21:51.271Z,66.92
2022-07-29T04:24:18.596Z,67.00
2022-07-29T04:26:49.235Z,67.08
2022-07-29T04:29:15.845Z,66.71
2022-07-29T04:31:43.314Z,67.03
2022-07-29T04:34:11.741Z,67.18
2022-07-29T04:36:38.699Z,67.10
2022-07-29T04:39:05.903Z,67.50
2022-07-29T04:41:32.974Z,66.99
2022-07-29T04:44:01.979Z,67.38
2022-07-29T04:46:29.465Z,67.00
2022-07-29T04:48:56.262Z,67.19
2022-07-29T04:51:22.984Z,67.75
2022-07-29T04:53:49.754Z,68.05
2022-07-29T04:56:16.348Z,68.30
2022-07-29T04:58:42.993Z,68.28
2022-07-29T05:01:09.724Z,67.86
2022-07-29T05:03:36.406Z,68.40
2022-07-29T05:06:06.895Z,68.27
2022-07-29T05:08:33.590Z,68.30
2022-07-29T05:11:11.675Z,68.78
2022-07-29T05:13:45.028Z,68.63
2022-07-29T05:16:12.880Z,69.20
2022-07-29T05:18:40.281Z,69.30
2022-07-29T05:21:06.851Z,68.99
2022-07-29T05:23:33.497Z,68.11
2022-07-29T05:26:00.117Z,68.45
2022-07-29T05:28:26.745Z,68.62
2022-07-29T05:30:53.363Z,68.38
2022-07-29T05:33:35.063Z,68.42
2022-07-29T05:36:07.912Z,68.93
2022-07-29T05:38:38.389Z,69.14
2022-07-29T05:41:06.229Z,68.25
2022-07-29T05:43:33.453Z,69.39
2022-07-29T05:46:00.204Z,69.29
2022-07-29T05:48:27.089Z,69.22
2022-07-29T05:50:53.913Z,69.01
2022-07-29T05:53:21.266Z,69.04
2022-07-29T05:55:49.045Z,68.97
2022-07-29T05:58:15.788Z,68.61
2022-07-29T06:00:42.926Z,68.68
2022-07-29T06:03:09.675Z,68.93
2022-07-29T06:05:36.315Z,69.10
2022-07-29T06:08:06.643Z,68.73
2022-07-29T06:10:33.757Z,68.23
2022-07-29T06:13:00.561Z,68.57
2022-07-29T06:15:27.292Z,68.84
2022-07-29T06:18:00.065Z,69.12
2022-07-29T06:20:31.744Z,68.53
2022-07-29T06:22:59.467Z,68.83
2022-07-29T06:25:26.659Z,68.75
2022-07-29T06:27:53.371Z,68.35
2022-07-29T06:30:20.236Z,68.07
2022-07-29T06:32:47.226Z,68.11
2022-07-29T06:38:00.409Z,68.07
2022-07-29T06:40:46.161Z,66.78
2022-07-29T06:43:13.072Z,67.53
2022-07-29T06:45:42.204Z,67.67
2022-07-29T06:48:11.491Z,67.33
2022-07-29T06:50:38.286Z,67.49
2022-07-29T06:53:05.137Z,65.46
2022-07-29T06:55:31.859Z,66.01
2022-07-29T06:57:58.423Z,65.79
2022-07-29T07:00:26.241Z,65.44
2022-07-29T07:02:52.901Z,65.88
2022-07-29T07:05:19.659Z,65.43
2022-07-29T07:07:46.310Z,65.11
2022-07-29T07:10:12.973Z,64.05
2022-07-29T07:12:39.745Z,64.70
2022-07-29T07:15:07.069Z,64.39
2022-07-29T07:17:36.679Z,63.76
2022-07-29T07:20:03.713Z,63.61
2022-07-29T07:22:30.826Z,63.74
2022-07-29T07:24:59.131Z,62.91
2022-07-29T07:27:26.097Z,63.11
2022-07-29T07:29:52.717Z,61.31
2022-07-29T07:32:19.429Z,59.81
2022-07-29T07:34:46.061Z,59.61
2022-07-29T07:37:12.903Z,58.14
2022-07-29T07:39:39.478Z,58.06
2022-07-29T07:42:06.185Z,57.63
2022-07-29T07:44:39.037Z,57.89
2022-07-29T07:47:13.620Z,56.71
2022-07-29T07:49:42.453Z,56.25
2022-07-29T07:52:12.256Z,55.72
2022-07-29T07:54:40.686Z,54.24
2022-07-29T07:57:07.670Z,53.47
2022-07-29T07:59:34.262Z,53.72
2022-07-29T08:02:01.989Z,53.83
2022-07-29T08:04:29.428Z,54.28
2022-07-29T08:06:57.793Z,54.57
2022-07-29T08:09:29.866Z,55.05
2022-07-29T08:11:58.745Z,54.38
2022-07-29T08:14:25.401Z,54.63
2022-07-29T08:16:52.488Z,54.57
2022-07-29T08:19:19.285Z,54.70
2022-07-29T08:21:45.947Z,55.26
2022-07-29T08:24:31.305Z,55.15
2022-07-29T08:26:57.956Z,55.12
2022-07-29T08:29:24.648Z,54.96
2022-07-29T08:31:51.579Z,54.20
2022-07-29T08:34:18.307Z,53.54
2022-07-29T08:36:44.922Z,53.72
2022-07-29T08:39:18.390Z,54.08
2022-07-29T08:41:57.434Z,54.65
2022-07-29T08:44:30.957Z,54.24
2022-07-29T08:46:58.071Z,53.09
2022-07-29T08:49:24.849Z,52.97
2022-07-29T08:51:52.415Z,53.21
2022-07-29T08:54:19.808Z,53.92
2022-07-29T08:56:50.850Z,53.29
2022-07-29T08:59:21.788Z,54.04
2022-07-29T09:01:52.068Z,53.26
2022-07-29T09:04:20.501Z,53.36
2022-07-29T09:06:52.319Z,53.04
2022-07-29T09:09:19.187Z,53.87
2022-07-29T09:11:45.885Z,53.96
2022-07-29T09:14:14.234Z,54.19
2022-07-29T09:16:53.638Z,54.25
2022-07-29T09:19:35.693Z,53.74
2022-07-29T09:22:05.158Z,53.43
2022-07-29T09:24:42.360Z,52.59
2022-07-29T09:27:29.896Z,52.56
2022-07-29T09:30:01.309Z,52.03
2022-07-29T09:32:29.117Z,52.80
2022-07-29T09:35:22.987Z,51.62
2022-07-29T09:37:50.072Z,52.22
2022-07-29T09:40:21.957Z,52.20
2022-07-29T09:42:49.622Z,51.80
2022-07-29T09:45:31.647Z,50.97
2022-07-29T09:48:01.408Z,50.37
2022-07-29T09:50:42.216Z,49.84
2022-07-29T09:53:12.260Z,48.49
2022-07-29T09:55:49.252Z,49.25
2022-07-29T09:58:20.511Z,48.93
2022-07-29T10:00:48.624Z,48.52
2022-07-29T10:03:16.964Z,47.44
2022-07-29T10:05:44.940Z,48.10
2022-07-29T10:08:13.357Z,48.95
2022-07-29T10:10:45.209Z,47.12
2022-07-29T10:13:15.939Z,46.61
2022-07-29T10:15:46.027Z,47.01
2022-07-29T10:18:14.519Z,47.67
2022-07-29T10:20:41.537Z,48.00
2022-07-29T10:23:08.254Z,46.68
2022-07-29T10:25:35.056Z,47.58
2022-07-29T10:28:01.898Z,46.45
2022-07-29T10:30:28.624Z,46.79
2022-07-29T10:33:01.190Z,45.79
2022-07-29T10:35:40.590Z,45.29
2022-07-29T10:38:38.539Z,45.40
2022-07-29T10:41:32.367Z,46.03
2022-07-29T10:44:19.233Z,45.24
2022-07-29T10:46:48.250Z,45.05
2022-07-29T10:49:17.130Z,45.31
2022-07-29T10:52:05.838Z,45.49
2022-07-29T10:54:35.747Z,44.34
2022-07-29T10:57:53.072Z,45.79
2022-07-29T11:00:17.012Z,46.16
2022-07-29T11:02:49.461Z,44.86
2022-07-29T11:05:20.027Z,45.46
2022-07-29T11:08:20.136Z,45.08
2022-07-29T11:10:49.390Z,45.13
2022-07-29T11:13:44.031Z,44.76
2022-07-29T11:16:12.913Z,44.07
2022-07-29T11:19:14.142Z,44.05
2022-07-29T11:21:53.798Z,44.74
2022-07-29T11:24:33.311Z,44.12
2022-07-29T11:27:13.607Z,45.90
2022-07-29T11:29:50.012Z,45.44
2022-07-29T11:32:23.245Z,44.61
2022-07-29T11:35:38.064Z,45.02
2022-07-29T11:38:29.214Z,45.35
2022-07-29T11:41:25.216Z,45.07
2022-07-29T11:44:01.368Z,44.10
2022-07-29T11:49:45.456Z,44.34
2022-07-29T11:52:15.173Z,44.16
2022-07-29T11:54:57.888Z,45.14
2022-07-29T11:57:36.434Z,43.62
2022-07-29T12:00:12.214Z,44.05
2022-07-29T12:02:48.366Z,43.33
2022-07-29T12:05:22.252Z,43.22
2022-07-29T12:08:22.901Z,42.72
2022-07-29T12:10:51.368Z,43.63
2022-07-29T12:13:20.846Z,42.47
2022-07-29T12:15:57.725Z,41.83
2022-07-29T12:18:27.716Z,42.06
2022-07-29T12:20:59.510Z,42.36
2022-07-29T12:23:35.027Z,41.48
2022-07-29T12:26:07.642Z,41.25
2022-07-29T12:28:39.354Z,40.73
2022-07-29T12:31:06.282Z,41.43
2022-07-29T12:33:36.037Z,43.16
2022-07-29T12:36:07.166Z,42.27
2022-07-29T12:38:37.240Z,40.85
2022-07-29T12:41:04.889Z,40.30
2022-07-29T12:43:32.178Z,39.79
2022-07-29T12:45:58.962Z,39.82
2022-07-29T12:48:39.196Z,38.16
2022-07-29T12:51:08.379Z,38.74
2022-07-29T12:53:36.125Z,38.60
2022-07-29T12:56:15.552Z,39.38
2022-07-29T12:58:51.636Z,39.64
2022-07-29T13:01:20.979Z,40.16
2022-07-29T13:04:01.097Z,38.91
2022-07-29T13:06:39.428Z,39.67
2022-07-29T13:09:19.440Z,39.51
2022-07-29T13:11:48.795Z,38.88
2022-07-29T13:14:35.201Z,39.42
2022-07-29T13:17:24.025Z,38.81
2022-07-29T13:20:08.669Z,39.09
2022-07-29T13:22:36.721Z,38.83
2022-07-29T13:25:03.957Z,39.75
2022-07-29T13:27:38.155Z,39.01
2022-07-29T13:30:07.978Z,39.28
2022-07-29T13:32:35.454Z,38.41
2022-07-29T13:35:05.231Z,38.42
2022-07-29T13:37:35.204Z,38.83
2022-07-29T13:40:06.535Z,38.79
2022-07-29T13:42:33.818Z,39.13
2022-07-29T13:45:01.060Z,39.31
2022-07-29T13:47:32.381Z,38.77
2022-07-29T13:50:03.644Z,38.92
2022-07-29T13:52:32.538Z,38.53
2022-07-29T13:54:59.215Z,39.04
2022-07-29T13:57:25.873Z,39.56
2022-07-29T13:59:54.366Z,38.27
2022-07-29T14:02:21.724Z,37.85
2022-07-29T14:04:54.365Z,38.56
2022-07-29T14:07:21.462Z,38.71
2022-07-29T14:09:48.106Z,39.09
2022-07-29T14:12:15.057Z,38.52
2022-07-29T14:14:42.409Z,38.04
2022-07-29T14:17:12.461Z,38.11
2022-07-29T14:19:39.810Z,37.94
2022-07-29T14:22:07.670Z,38.74
2022-07-29T14:24:37.538Z,38.62
2022-07-29T14:27:05.823Z,38.55
2022-07-29T14:29:37.278Z,37.72
2022-07-29T14:32:09.958Z,38.33
2022-07-29T14:34:38.298Z,38.30
2022-07-29T14:37:09.525Z,37.49
2022-07-29T14:39:43.376Z,36.98
2022-07-29T14:42:12.741Z,36.83
2022-07-29T14:44:40.664Z,37.65
2022-07-29T14:47:08.350Z,36.76
2022-07-29T14:49:35.872Z,36.54
2022-07-29T14:52:02.933Z,35.41
2022-07-29T14:54:29.542Z,35.39
2022-07-29T14:56:58.021Z,35.47
2022-07-29T14:59:25.603Z,36.77
2022-07-29T15:01:52.339Z,34.84
2022-07-29T15:04:19.147Z,34.37
2022-07-29T15:06:45.772Z,34.86
2022-07-29T15:09:12.789Z,35.30
2022-07-29T15:11:39.442Z,35.21
2022-07-29T15:14:06.851Z,35.71
2022-07-29T15:16:33.944Z,33.63
2022-07-29T15:19:01.226Z,34.08
2022-07-29T15:21:28.537Z,34.28
2022-07-29T15:23:55.220Z,35.09
2022-07-29T15:26:22.493Z,34.75
2022-07-29T15:28:49.255Z,35.42
2022-07-29T15:31:16.046Z,33.93
2022-07-29T15:33:42.852Z,34.29
2022-07-29T15:36:09.631Z,34.28
2022-07-29T15:38:36.321Z,33.11
2022-07-29T15:41:09.193Z,33.67
2022-07-29T15:43:36.359Z,32.99
2022-07-29T15:46:35.125Z,33.56
2022-07-29T15:49:03.473Z,34.37
2022-07-29T15:51:30.173Z,32.81
2022-07-29T15:53:57.162Z,32.33
2022-07-29T15:56:24.408Z,33.32
2022-07-29T15:58:51.711Z,32.91
2022-07-29T16:01:18.322Z,32.98
2022-07-29T16:03:46.422Z,32.57
2022-07-29T16:06:14.098Z,32.77
2022-07-29T16:08:40.680Z,33.10
2022-07-29T16:11:07.243Z,32.72
2022-07-29T16:13:33.827Z,32.27
2022-07-29T16:16:03.001Z,32.46
2022-07-29T16:18:30.513Z,31.95
2022-07-29T16:20:57.898Z,32.10
2022-07-29T16:23:25.236Z,32.70
2022-07-29T16:26:00.513Z,32.62
2022-07-29T16:28:29.154Z,33.68
2022-07-29T16:30:55.985Z,33.84
2022-07-29T16:33:23.537Z,33.74
2022-07-29T16:35:50.966Z,33.67
2022-07-29T16:38:17.762Z,33.14
2022-07-29T16:40:44.462Z,32.87
2022-07-29T16:43:11.086Z,34.02
2022-07-29T16:45:45.518Z,33.20
2022-07-29T16:48:18.230Z,33.31
2022-07-29T16:50:45.845Z,32.83
2022-07-29T16:53:12.532Z,32.58
2022-07-29T16:55:42.286Z,33.49
2022-07-29T16:58:09.905Z,32.89
2022-07-29T17:00:36.769Z,33.25
2022-07-29T17:03:03.689Z,33.42
2022-07-29T17:05:30.255Z,33.25
2022-07-29T17:08:16.936Z,33.69
2022-07-29T17:10:43.545Z,33.58
2022-07-29T17:13:10.188Z,33.88
2022-07-29T17:15:36.881Z,34.12
2022-07-29T17:18:12.535Z,34.29
2022-07-29T17:20:41.328Z,34.60
2022-07-29T17:23:08.066Z,34.55
2022-07-29T17:25:34.761Z,34.52
2022-07-29T17:28:01.544Z,35.31
2022-07-29T17:30:29.266Z,35.35
2022-07-29T17:32:55.922Z,35.56
2022-07-29T17:35:41.251Z,35.80
2022-07-29T17:38:10.739Z,36.36
2022-07-29T17:40:37.362Z,35.82
2022-07-29T17:43:04.744Z,35.90
2022-07-29T17:45:49.003Z,35.94
2022-07-29T17:48:18.741Z,36.30
2022-07-29T17:50:47.330Z,36.21
2022-07-29T17:53:16.013Z,36.72
2022-07-29T17:55:45.305Z,36.76
2022-07-29T17:58:12.036Z,36.82
2022-07-29T18:00:39.050Z,36.45
2022-07-29T18:03:05.922Z,37.07
2022-07-29T18:05:33.340Z,37.20
2022-07-29T18:07:59.911Z,37.44
2022-07-29T18:10:26.801Z,37.35
2022-07-29T18:12:53.610Z,37.91
2022-07-29T18:15:20.174Z,38.71
2022-07-29T18:17:56.886Z,39.28
2022-07-29T18:20:24.128Z,38.88
2022-07-29T18:22:51.134Z,38.84
2022-07-29T18:25:18.777Z,38.99
2022-07-29T18:27:45.330Z,39.37
2022-07-29T18:30:14.895Z,39.16
2022-07-29T18:32:54.358Z,39.32
2022-07-29T18:35:28.571Z,39.25
2022-07-29T18:38:01.239Z,39.54
2022-07-29T18:40:29.680Z,40.03
2022-07-29T18:42:56.608Z,40.41
2022-07-29T18:45:28.650Z,40.64
2022-07-29T18:47:56.664Z,40.95
2022-07-29T18:50:28.895Z,40.49
2022-07-29T18:52:58.623Z,41.07
2022-07-29T18:55:26.582Z,41.13
2022-07-29T18:57:55.970Z,40.76
2022-07-29T19:00:24.428Z,40.53
2022-07-29T19:02:51.540Z,40.39
2022-07-29T19:05:18.421Z,40.18
2022-07-29T19:07:45.061Z,40.09
2022-07-29T19:10:12.200Z,40.22
2022-07-29T19:12:39.105Z,40.63
2022-07-29T19:15:07.534Z,40.52
2022-07-29T19:17:34.144Z,40.71
2022-07-29T19:20:00.869Z,41.26
2022-07-29T19:22:27.770Z,41.04
2022-07-29T19:24:54.461Z,41.16
2022-07-29T19:27:21.028Z,41.10
2022-07-29T19:29:47.653Z,41.02
2022-07-29T19:32:14.615Z,41.16
2022-07-29T19:35:11.725Z,41.47
2022-07-29T19:37:38.400Z,41.05
2022-07-29T19:40:06.637Z,41.44
2022-07-29T19:42:34.900Z,41.53
2022-07-29T19:45:01.462Z,42.14
2022-07-29T19:47:28.885Z,42.72
2022-07-29T19:49:55.480Z,42.73
2022-07-29T19:52:22.083Z,43.08
2022-07-29T19:54:49.955Z,43.59
2022-07-29T19:57:16.652Z,44.03
2022-07-29T19:59:44.275Z,44.49
2022-07-29T20:02:12.118Z,45.00
2022-07-29T20:04:39.252Z,45.48
2022-07-29T20:07:07.626Z,45.93
2022-07-29T20:09:34.747Z,46.24
2022-07-29T20:12:01.511Z,46.57
2022-07-29T20:14:28.151Z,47.00
2022-07-29T20:16:54.811Z,47.22
2022-07-29T20:19:21.638Z,47.66
2022-07-29T20:21:48.438Z,48.13
2022-07-29T20:24:15.121Z,48.67
2022-07-29T20:26:41.772Z,48.98
2022-07-29T20:29:09.112Z,49.30
2022-07-29T20:31:37.412Z,50.22
2022-07-29T20:34:04.111Z,50.64
2022-07-29T20:36:30.960Z,51.20
2022-07-29T20:38:59.903Z,51.63
2022-07-29T20:41:26.917Z,52.07
2022-07-29T20:43:55.828Z,52.95
2022-07-29T20:46:22.477Z,53.27
2022-07-29T20:48:49.234Z,53.63
2022-07-29T20:51:16.035Z,54.18
2022-07-29T20:53:42.703Z,54.48
2022-07-29T20:56:09.308Z,54.59
2022-07-29T20:58:36.404Z,54.91
2022-07-29T21:01:07.201Z,55.48
2022-07-29T21:03:36.714Z,55.48
2022-07-29T21:06:03.865Z,56.30
2022-07-29T21:08:30.500Z,56.19
2022-07-29T21:10:57.655Z,56.94
2022-07-29T21:13:25.466Z,57.06
2022-07-29T21:15:54.831Z,57.62
2022-07-29T21:18:28.082Z,58.28
2022-07-29T21:20:55.226Z,58.22
2022-07-29T21:23:21.983Z,58.83
2022-07-29T21:25:48.833Z,59.66
2022-07-29T21:28:27.670Z,60.18
2022-07-29T21:30:56.613Z,60.41
2022-07-29T21:33:24.178Z,61.08
2022-07-29T21:38:38.114Z,61.40
2022-07-29T21:41:06.083Z,61.98
2022-07-29T21:43:32.906Z,62.25
2022-07-29T21:46:00.670Z,62.49
2022-07-29T21:48:28.638Z,62.52
2022-07-29T21:50:55.506Z,63.10
2022-07-29T21:53:23.013Z,63.07
2022-07-29T21:55:56.808Z,63.07
2022-07-29T21:58:24.580Z,63.12
2022-07-29T22:00:51.756Z,63.10
2022-07-29T22:03:18.460Z,63.42
2022-07-29T22:05:45.258Z,63.09
2022-07-29T22:08:11.933Z,63.51
2022-07-29T22:10:39.950Z,63.93
2022-07-29T22:13:07.229Z,63.97
2022-07-29T22:15:33.891Z,63.99
2022-07-29T22:18:00.863Z,64.45
2022-07-29T22:20:27.821Z,64.60
2022-07-29T22:22:54.740Z,64.87
2022-07-29T22:25:22.120Z,65.11
2022-07-29T22:27:50.925Z,65.89
2022-07-29T22:30:18.635Z,67.17
2022-07-29T22:32:45.311Z,69.02
2022-07-29T22:35:12.262Z,70.79
2022-07-29T22:37:39.118Z,73.69
2022-07-29T22:40:08.242Z,73.22
2022-07-29T22:42:35.494Z,74.49
2022-07-29T22:45:02.545Z,75.43
2022-07-29T22:47:39.788Z,77.05
2022-07-29T22:50:14.654Z,78.11
2022-07-29T22:52:41.497Z,79.87
2022-07-29T22:55:08.381Z,79.94
2022-07-29T22:57:35.038Z,81.02
2022-07-29T23:00:02.278Z,81.42
2022-07-29T23:02:29.335Z,82.06
2022-07-29T23:04:56.126Z,83.11
2022-07-29T23:07:23.033Z,82.99
2022-07-29T23:09:50.309Z,83.94
2022-07-29T23:12:17.526Z,83.60
2022-07-29T23:14:44.219Z,84.71
2022-07-29T23:17:10.917Z,84.93
2022-07-29T23:19:37.896Z,85.04
2022-07-29T23:22:04.939Z,85.32
2022-07-29T23:24:31.588Z,85.99
2022-07-29T23:26:58.657Z,86.13
2022-07-29T23:29:26.090Z,86.58
2022-07-29T23:31:53.132Z,87.24
2022-07-29T23:34:19.762Z,86.84
2022-07-29T23:36:46.414Z,87.92
2022-07-29T23:39:13.279Z,88.10
2022-07-29T23:41:40.434Z,89.19
2022-07-29T23:44:07.413Z,89.57
2022-07-29T23:46:34.523Z,89.71
2022-07-29T23:49:01.272Z,90.51
2022-07-29T23:51:29.275Z,90.32
2022-07-29T23:53:56.607Z,91.60
2022-07-29T23:56:23.489Z,91.08
2022-07-29T23:58:50.154Z,91.15
